Loveland, Colorado
Current Conditions -  °F | °C
As of 1:55 PM on Saturday 22 Nov 2014 (Local Time) from KFNL Reporting Station
Clear Clear  
Wind Chill: 42°   Ceiling: Unl
Heat Index: 46°   Visibility: 10mi
Dew Point: 27°   Wind: 8mph
Humidity: 46%   Direction: 350°N
Pressure: 29.6"   Gusts: NA
Location:  40.39°N, 105.07°W
Report Text: KFNL 222055Z AUTO 35007KT 10SM CLR 08/M03 A2960 RMK AO1 57024
Loading
Personal Weather Stations






























Interactive Weather Map New forecast layout! Learn more

10-Day Weather Forecast

Advertisements
Track Severe Weather on mobile